sensor_id;sensor_type;location;lat;lon;timestamp;pressure;altitude;pressure_sealevel;temperature
78369;BMP280;71113;43.092;-89.268;2023-12-28T00:01:25;98218.84;;;19.41
78369;BMP280;71113;43.092;-89.268;2023-12-28T00:03:51;98219.94;;;19.40
78369;BMP280;71113;43.092;-89.268;2023-12-28T00:06:17;98221.94;;;19.43
78369;BMP280;71113;43.092;-89.268;2023-12-28T00:08:43;98225.53;;;19.47
78369;BMP280;71113;43.092;-89.268;2023-12-28T00:11:09;98217.69;;;19.50
78369;BMP280;71113;43.092;-89.268;2023-12-28T00:13:35;98224.34;;;19.57
78369;BMP280;71113;43.092;-89.268;2023-12-28T00:16:00;98231.94;;;19.58
78369;BMP280;71113;43.092;-89.268;2023-12-28T00:18:26;98228.53;;;19.58
78369;BMP280;71113;43.092;-89.268;2023-12-28T00:20:53;98237.91;;;19.55
78369;BMP280;71113;43.092;-89.268;2023-12-28T00:23:18;98232.13;;;19.53
78369;BMP280;71113;43.092;-89.268;2023-12-28T00:25:47;98231.72;;;19.51
78369;BMP280;71113;43.092;-89.268;2023-12-28T00:28:13;98238.41;;;19.48
78369;BMP280;71113;43.092;-89.268;2023-12-28T00:30:39;98234.66;;;19.49
78369;BMP280;71113;43.092;-89.268;2023-12-28T00:33:05;98239.03;;;19.45
78369;BMP280;71113;43.092;-89.268;2023-12-28T00:35:31;98238.28;;;19.45
78369;BMP280;71113;43.092;-89.268;2023-12-28T00:37:56;98241.56;;;19.42
78369;BMP280;71113;43.092;-89.268;2023-12-28T00:40:22;98241.56;;;19.42
78369;BMP280;71113;43.092;-89.268;2023-12-28T00:42:48;98244.84;;;19.39
78369;BMP280;71113;43.092;-89.268;2023-12-28T00:45:14;98256.22;;;19.39
78369;BMP280;71113;43.092;-89.268;2023-12-28T00:47:40;98259.94;;;19.38
78369;BMP280;71113;43.092;-89.268;2023-12-28T00:50:09;98263.22;;;19.35
78369;BMP280;71113;43.092;-89.268;2023-12-28T00:52:37;98269.44;;;19.39
78369;BMP280;71113;43.092;-89.268;2023-12-28T00:55:04;98265.81;;;19.44
78369;BMP280;71113;43.092;-89.268;2023-12-28T00:57:30;98262.09;;;19.45
78369;BMP280;71113;43.092;-89.268;2023-12-28T00:59:56;98268.78;;;19.42
78369;BMP280;71113;43.092;-89.268;2023-12-28T01:02:22;98272.84;;;19.40
78369;BMP280;71113;43.092;-89.268;2023-12-28T01:04:48;98270.22;;;19.40
78369;BMP280;71113;43.092;-89.268;2023-12-28T01:07:14;98270.84;;;19.37
78369;BMP280;71113;43.092;-89.268;2023-12-28T01:09:40;98273.00;;;19.35
78369;BMP280;71113;43.092;-89.268;2023-12-28T01:12:06;98270.72;;;19.33
78369;BMP280;71113;43.092;-89.268;2023-12-28T01:14:32;98271.50;;;19.34
78369;BMP280;71113;43.092;-89.268;2023-12-28T01:16:58;98266.66;;;19.36
78369;BMP280;71113;43.092;-89.268;2023-12-28T01:19:25;98267.13;;;19.38
78369;BMP280;71113;43.092;-89.268;2023-12-28T01:21:51;98261.50;;;19.39
78369;BMP280;71113;43.092;-89.268;2023-12-28T01:24:17;98257.00;;;19.40
78369;BMP280;71113;43.092;-89.268;2023-12-28T01:26:43;98253.25;;;19.41
78369;BMP280;71113;43.092;-89.268;2023-12-28T01:29:09;98260.09;;;19.42
78369;BMP280;71113;43.092;-89.268;2023-12-28T01:31:35;98261.63;;;19.43
78369;BMP280;71113;43.092;-89.268;2023-12-28T01:34:01;98258.66;;;19.44
78369;BMP280;71113;43.092;-89.268;2023-12-28T01:36:28;98253.81;;;19.46
78369;BMP280;71113;43.092;-89.268;2023-12-28T01:38:55;98249.34;;;19.47
78369;BMP280;71113;43.092;-89.268;2023-12-28T01:41:21;98253.53;;;19.48
78369;BMP280;71113;43.092;-89.268;2023-12-28T01:43:47;98255.06;;;19.49
78369;BMP280;71113;43.092;-89.268;2023-12-28T01:46:18;98259.72;;;19.52
78369;BMP280;71113;43.092;-89.268;2023-12-28T01:48:44;98251.44;;;19.54
78369;BMP280;71113;43.092;-89.268;2023-12-28T01:51:12;98254.56;;;19.56
78369;BMP280;71113;43.092;-89.268;2023-12-28T01:53:39;98244.75;;;19.56
78369;BMP280;71113;43.092;-89.268;2023-12-28T01:56:05;98243.34;;;19.59
78369;BMP280;71113;43.092;-89.268;2023-12-28T01:58:33;98245.66;;;19.60
78369;BMP280;71113;43.092;-89.268;2023-12-28T02:01:01;98237.38;;;19.62
78369;BMP280;71113;43.092;-89.268;2023-12-28T02:03:28;98237.84;;;19.64
78369;BMP280;71113;43.092;-89.268;2023-12-28T02:05:54;98233.78;;;19.66
78369;BMP280;71113;43.092;-89.268;2023-12-28T02:08:20;98229.72;;;19.69
78369;BMP280;71113;43.092;-89.268;2023-12-28T02:10:47;98228.28;;;19.71
78369;BMP280;71113;43.092;-89.268;2023-12-28T02:13:13;98229.84;;;19.72
78369;BMP280;71113;43.092;-89.268;2023-12-28T02:15:39;98226.09;;;19.73
78369;BMP280;71113;43.092;-89.268;2023-12-28T02:18:11;98228.41;;;19.75
78369;BMP280;71113;43.092;-89.268;2023-12-28T02:20:39;98231.84;;;19.75
78369;BMP280;71113;43.092;-89.268;2023-12-28T02:23:05;98228.09;;;19.76
78369;BMP280;71113;43.092;-89.268;2023-12-28T02:25:32;98223.56;;;19.77
78369;BMP280;71113;43.092;-89.268;2023-12-28T02:27:58;98228.22;;;19.80
78369;BMP280;71113;43.092;-89.268;2023-12-28T02:30:24;98219.94;;;19.81
78369;BMP280;71113;43.092;-89.268;2023-12-28T02:36:04;98218.22;;;19.86
78369;BMP280;71113;43.092;-89.268;2023-12-28T02:38:34;98215.25;;;19.87
78369;BMP280;71113;43.092;-89.268;2023-12-28T02:41:03;98216.47;;;19.90
78369;BMP280;71113;43.092;-89.268;2023-12-28T02:43:29;98218.03;;;19.91
78369;BMP280;71113;43.092;-89.268;2023-12-28T02:45:55;98216.91;;;19.92
78369;BMP280;71113;43.092;-89.268;2023-12-28T02:48:21;98207.06;;;19.92
78369;BMP280;71113;43.092;-89.268;2023-12-28T02:50:47;98210.50;;;19.93
78369;BMP280;71113;43.092;-89.268;2023-12-28T02:53:13;98206.00;;;19.93
78369;BMP280;71113;43.092;-89.268;2023-12-28T02:55:39;98205.19;;;19.93
78369;BMP280;71113;43.092;-89.268;2023-12-28T02:58:05;98209.44;;;19.94
78369;BMP280;71113;43.092;-89.268;2023-12-28T03:00:31;98194.59;;;19.93
78369;BMP280;71113;43.092;-89.268;2023-12-28T03:02:57;98200.38;;;19.95
78369;BMP280;71113;43.092;-89.268;2023-12-28T03:05:23;98197.72;;;19.95
78369;BMP280;71113;43.092;-89.268;2023-12-28T03:07:49;98203.03;;;19.95
78369;BMP280;71113;43.092;-89.268;2023-12-28T03:10:15;98200.38;;;19.95
78369;BMP280;71113;43.092;-89.268;2023-12-28T03:12:41;98200.78;;;19.97
78369;BMP280;71113;43.092;-89.268;2023-12-28T03:15:07;98197.72;;;19.95
78369;BMP280;71113;43.092;-89.268;2023-12-28T03:17:33;98195.50;;;19.97
78369;BMP280;71113;43.092;-89.268;2023-12-28T03:20:00;98182.25;;;19.97
78369;BMP280;71113;43.092;-89.268;2023-12-28T03:22:25;98176.97;;;19.97
78369;BMP280;71113;43.092;-89.268;2023-12-28T03:24:52;98173.91;;;19.95
78369;BMP280;71113;43.092;-89.268;2023-12-28T03:27:17;98178.44;;;19.94
78369;BMP280;71113;43.092;-89.268;2023-12-28T03:29:44;98176.97;;;19.97
78369;BMP280;71113;43.092;-89.268;2023-12-28T03:32:10;98181.97;;;19.98
78369;BMP280;71113;43.092;-89.268;2023-12-28T03:34:36;98173.56;;;19.96
78369;BMP280;71113;43.092;-89.268;2023-12-28T03:37:03;98183.41;;;19.96
78369;BMP280;71113;43.092;-89.268;2023-12-28T03:39:29;98185.72;;;19.97
78369;BMP280;71113;43.092;-89.268;2023-12-28T03:41:55;98181.19;;;19.98
78369;BMP280;71113;43.092;-89.268;2023-12-28T03:44:21;98179.63;;;19.97
78369;BMP280;71113;43.092;-89.268;2023-12-28T03:46:50;98183.84;;;19.98
78369;BMP280;71113;43.092;-89.268;2023-12-28T03:49:17;98178.22;;;19.99
78369;BMP280;71113;43.092;-89.268;2023-12-28T03:51:44;98187.25;;;19.98
78369;BMP280;71113;43.092;-89.268;2023-12-28T03:54:10;98183.84;;;19.98
78369;BMP280;71113;43.092;-89.268;2023-12-28T03:56:36;98185.38;;;19.99
78369;BMP280;71113;43.092;-89.268;2023-12-28T03:59:05;98183.84;;;19.98
78369;BMP280;71113;43.092;-89.268;2023-12-28T04:01:32;98182.75;;;19.99
78369;BMP280;71113;43.092;-89.268;2023-12-28T04:03:58;98187.25;;;19.98
78369;BMP280;71113;43.092;-89.268;2023-12-28T04:06:24;98182.75;;;19.99
78369;BMP280;71113;43.092;-89.268;2023-12-28T04:09:11;98184.28;;;20.00
78369;BMP280;71113;43.092;-89.268;2023-12-28T04:11:36;98185.06;;;20.00
78369;BMP280;71113;43.092;-89.268;2023-12-28T04:14:03;98185.84;;;20.01
78369;BMP280;71113;43.092;-89.268;2023-12-28T04:16:29;98186.59;;;20.01
78369;BMP280;71113;43.092;-89.268;2023-12-28T04:18:55;98183.19;;;20.01
78369;BMP280;71113;43.092;-89.268;2023-12-28T04:21:21;98176.00;;;20.01
78369;BMP280;71113;43.092;-89.268;2023-12-28T04:23:47;98183.19;;;20.01
78369;BMP280;71113;43.092;-89.268;2023-12-28T04:26:13;98182.84;;;20.02
78369;BMP280;71113;43.092;-89.268;2023-12-28T04:28:39;98176.78;;;20.02
78369;BMP280;71113;43.092;-89.268;2023-12-28T04:31:06;98177.88;;;20.01
78369;BMP280;71113;43.092;-89.268;2023-12-28T04:33:32;98175.25;;;20.01
78369;BMP280;71113;43.092;-89.268;2023-12-28T04:36:03;98173.03;;;20.03
78369;BMP280;71113;43.092;-89.268;2023-12-28T04:38:30;98177.56;;;20.02
78369;BMP280;71113;43.092;-89.268;2023-12-28T04:40:57;98171.50;;;20.02
78369;BMP280;71113;43.092;-89.268;2023-12-28T04:43:23;98174.13;;;20.02
78369;BMP280;71113;43.092;-89.268;2023-12-28T04:45:50;98175.25;;;20.01
78369;BMP280;71113;43.092;-89.268;2023-12-28T04:48:16;98165.75;;;20.00
78369;BMP280;71113;43.092;-89.268;2023-12-28T04:50:47;98169.94;;;20.01
78369;BMP280;71113;43.092;-89.268;2023-12-28T04:53:13;98172.59;;;20.01
78369;BMP280;71113;43.092;-89.268;2023-12-28T04:55:39;98176.00;;;20.01
78369;BMP280;71113;43.092;-89.268;2023-12-28T04:58:05;98176.00;;;20.01
78369;BMP280;71113;43.092;-89.268;2023-12-28T05:00:31;98173.69;;;20.00
78369;BMP280;71113;43.092;-89.268;2023-12-28T05:02:57;98179.75;;;20.00
78369;BMP280;71113;43.092;-89.268;2023-12-28T05:05:23;98176.34;;;20.00
78369;BMP280;71113;43.092;-89.268;2023-12-28T05:07:49;98182.09;;;20.02
78369;BMP280;71113;43.092;-89.268;2023-12-28T05:10:15;98178.66;;;20.01
78369;BMP280;71113;43.092;-89.268;2023-12-28T05:12:40;98175.69;;;20.03
78369;BMP280;71113;43.092;-89.268;2023-12-28T05:15:06;98176.78;;;20.02
78369;BMP280;71113;43.092;-89.268;2023-12-28T05:17:32;98178.66;;;20.01
78369;BMP280;71113;43.092;-89.268;2023-12-28T05:19:58;98175.25;;;20.01
78369;BMP280;71113;43.092;-89.268;2023-12-28T05:22:24;98169.94;;;20.01
78369;BMP280;71113;43.092;-89.268;2023-12-28T05:24:50;98168.06;;;20.01
78369;BMP280;71113;43.092;-89.268;2023-12-28T05:27:16;98166.97;;;20.02
78369;BMP280;71113;43.092;-89.268;2023-12-28T05:29:42;98166.19;;;20.02
78369;BMP280;71113;43.092;-89.268;2023-12-28T05:32:08;98154.06;;;20.01
78369;BMP280;71113;43.092;-89.268;2023-12-28T05:34:33;98148.75;;;20.01
78369;BMP280;71113;43.092;-89.268;2023-12-28T05:36:59;98149.53;;;20.01
78369;BMP280;71113;43.092;-89.268;2023-12-28T05:39:25;98146.13;;;20.01
78369;BMP280;71113;43.092;-89.268;2023-12-28T05:41:51;98138.94;;;20.01
78369;BMP280;71113;43.092;-89.268;2023-12-28T05:44:19;98135.53;;;20.01
78369;BMP280;71113;43.092;-89.268;2023-12-28T05:46:46;98128.69;;;20.00
78369;BMP280;71113;43.092;-89.268;2023-12-28T05:49:12;98125.69;;;20.01
78369;BMP280;71113;43.092;-89.268;2023-12-28T05:51:41;98124.94;;;20.01
78369;BMP280;71113;43.092;-89.268;2023-12-28T05:54:07;98124.94;;;20.01
78369;BMP280;71113;43.092;-89.268;2023-12-28T05:56:35;98115.44;;;20.00
78369;BMP280;71113;43.092;-89.268;2023-12-28T05:59:00;98125.25;;;19.99
78369;BMP280;71113;43.092;-89.268;2023-12-28T06:01:26;98127.56;;;20.01
78369;BMP280;71113;43.092;-89.268;2023-12-28T06:03:53;98132.09;;;20.00
78369;BMP280;71113;43.092;-89.268;2023-12-28T06:06:19;98121.50;;;20.00
78369;BMP280;71113;43.092;-89.268;2023-12-28T06:08:46;98128.34;;;20.01
78369;BMP280;71113;43.092;-89.268;2023-12-28T06:11:12;98123.06;;;20.01
78369;BMP280;71113;43.092;-89.268;2023-12-28T06:13:38;98126.03;;;20.00
78369;BMP280;71113;43.092;-89.268;2023-12-28T06:16:04;98115.44;;;20.00
78369;BMP280;71113;43.092;-89.268;2023-12-28T06:18:30;98111.25;;;19.99
78369;BMP280;71113;43.092;-89.268;2023-12-28T06:20:56;98109.38;;;19.99
78369;BMP280;71113;43.092;-89.268;2023-12-28T06:23:22;98107.81;;;19.98
78369;BMP280;71113;43.092;-89.268;2023-12-28T06:25:48;98108.13;;;19.97
78369;BMP280;71113;43.092;-89.268;2023-12-28T06:28:14;98101.75;;;19.98
78369;BMP280;71113;43.092;-89.268;2023-12-28T06:30:40;98100.53;;;19.95
78369;BMP280;71113;43.092;-89.268;2023-12-28T06:33:05;98092.59;;;19.95
78369;BMP280;71113;43.092;-89.268;2023-12-28T06:35:31;98091.81;;;19.95
78369;BMP280;71113;43.092;-89.268;2023-12-28T06:37:57;98086.53;;;19.95
78369;BMP280;71113;43.092;-89.268;2023-12-28T06:40:23;98079.69;;;19.94
78369;BMP280;71113;43.092;-89.268;2023-12-28T06:42:49;98082.13;;;19.87
78369;BMP280;71113;43.092;-89.268;2023-12-28T06:45:15;98077.13;;;19.85
78369;BMP280;71113;43.092;-89.268;2023-12-28T06:47:41;98065.75;;;19.85
78369;BMP280;71113;43.092;-89.268;2023-12-28T06:50:07;98062.69;;;19.83
78369;BMP280;71113;43.092;-89.268;2023-12-28T06:52:33;98053.97;;;19.82
78369;BMP280;71113;43.092;-89.268;2023-12-28T06:54:59;98046.69;;;19.79
78369;BMP280;71113;43.092;-89.268;2023-12-28T06:57:25;98048.09;;;19.76
78369;BMP280;71113;43.092;-89.268;2023-12-28T06:59:51;98049.41;;;19.70
78369;BMP280;71113;43.092;-89.268;2023-12-28T07:02:16;98038.38;;;19.68
78369;BMP280;71113;43.092;-89.268;2023-12-28T07:04:42;98041.38;;;19.67
78369;BMP280;71113;43.092;-89.268;2023-12-28T07:07:08;98034.84;;;19.64
78369;BMP280;71113;43.092;-89.268;2023-12-28T07:09:35;98035.50;;;19.61
78369;BMP280;71113;43.092;-89.268;2023-12-28T07:12:01;98029.78;;;19.59
78369;BMP280;71113;43.092;-89.268;2023-12-28T07:14:27;98031.94;;;19.57
78369;BMP280;71113;43.092;-89.268;2023-12-28T07:16:53;98029.84;;;19.50
78369;BMP280;71113;43.092;-89.268;2023-12-28T07:19:22;98024.09;;;19.48
78369;BMP280;71113;43.092;-89.268;2023-12-28T07:21:47;98029.28;;;19.45
78369;BMP280;71113;43.092;-89.268;2023-12-28T07:24:13;98027.00;;;19.43
78369;BMP280;71113;43.092;-89.268;2023-12-28T07:26:39;98024.53;;;19.38
78369;BMP280;71113;43.092;-89.268;2023-12-28T07:29:05;98024.09;;;19.36
78369;BMP280;71113;43.092;-89.268;2023-12-28T07:31:31;98018.03;;;19.36
78369;BMP280;71113;43.092;-89.268;2023-12-28T07:33:57;98017.47;;;19.42
78369;BMP280;71113;43.092;-89.268;2023-12-28T07:36:23;98025.09;;;19.44
78369;BMP280;71113;43.092;-89.268;2023-12-28T07:38:49;98039.25;;;19.48
78369;BMP280;71113;43.092;-89.268;2023-12-28T07:41:15;98041.22;;;19.51
78369;BMP280;71113;43.092;-89.268;2023-12-28T07:43:41;98042.41;;;19.54
78369;BMP280;71113;43.092;-89.268;2023-12-28T07:46:06;98031.94;;;19.57
78369;BMP280;71113;43.092;-89.268;2023-12-28T07:48:32;98016.06;;;19.57
78369;BMP280;71113;43.092;-89.268;2023-12-28T07:50:58;98015.84;;;19.50
78369;BMP280;71113;43.092;-89.268;2023-12-28T07:53:24;98023.22;;;19.44
78369;BMP280;71113;43.092;-89.268;2023-12-28T07:55:50;98014.06;;;19.42
78369;BMP280;71113;43.092;-89.268;2023-12-28T07:58:16;98010.97;;;19.40
78369;BMP280;71113;43.092;-89.268;2023-12-28T08:00:42;98008.22;;;19.36
78369;BMP280;71113;43.092;-89.268;2023-12-28T08:03:07;98004.78;;;19.36
78369;BMP280;71113;43.092;-89.268;2023-12-28T08:05:33;98003.56;;;19.33
78369;BMP280;71113;43.092;-89.268;2023-12-28T08:07:59;98006.09;;;19.30
78369;BMP280;71113;43.092;-89.268;2023-12-28T08:10:25;98008.75;;;19.30
78369;BMP280;71113;43.092;-89.268;2023-12-28T08:12:51;98008.19;;;19.24
78369;BMP280;71113;43.092;-89.268;2023-12-28T08:15:17;98014.53;;;19.23
78369;BMP280;71113;43.092;-89.268;2023-12-28T08:17:43;98017.19;;;19.23
78369;BMP280;71113;43.092;-89.268;2023-12-28T08:20:09;98010.72;;;19.21
78369;BMP280;71113;43.092;-89.268;2023-12-28T08:22:34;98009.47;;;19.18
78369;BMP280;71113;43.092;-89.268;2023-12-28T08:25:00;98014.63;;;19.14
78369;BMP280;71113;43.092;-89.268;2023-12-28T08:27:26;98023.22;;;19.11
78369;BMP280;71113;43.092;-89.268;2023-12-28T08:29:52;98028.81;;;19.10
78369;BMP280;71113;43.092;-89.268;2023-12-28T08:32:18;98036.28;;;19.08
78369;BMP280;71113;43.092;-89.268;2023-12-28T08:34:43;98033.50;;;19.04
78369;BMP280;71113;43.092;-89.268;2023-12-28T08:37:10;98032.75;;;19.04
78369;BMP280;71113;43.092;-89.268;2023-12-28T08:39:36;98031.56;;;19.01
78369;BMP280;71113;43.092;-89.268;2023-12-28T08:42:02;98023.50;;;18.98
78369;BMP280;71113;43.092;-89.268;2023-12-28T08:44:28;98023.16;;;18.99
78369;BMP280;71113;43.092;-89.268;2023-12-28T08:46:54;98013.53;;;18.95
78369;BMP280;71113;43.092;-89.268;2023-12-28T08:49:19;98014.97;;;18.92
78369;BMP280;71113;43.092;-89.268;2023-12-28T08:51:47;98022.44;;;18.90
78369;BMP280;71113;43.092;-89.268;2023-12-28T08:54:13;98031.03;;;18.87
78369;BMP280;71113;43.092;-89.268;2023-12-28T08:56:39;98024.97;;;18.86
78369;BMP280;71113;43.092;-89.268;2023-12-28T08:59:05;98027.16;;;18.84
78369;BMP280;71113;43.092;-89.268;2023-12-28T09:01:31;98023.75;;;18.84
78369;BMP280;71113;43.092;-89.268;2023-12-28T09:03:58;98007.69;;;18.89
78369;BMP280;71113;43.092;-89.268;2023-12-28T09:06:24;98003.31;;;18.93
78369;BMP280;71113;43.092;-89.268;2023-12-28T09:08:51;98000.47;;;18.98
78369;BMP280;71113;43.092;-89.268;2023-12-28T09:11:18;97999.34;;;18.99
78369;BMP280;71113;43.092;-89.268;2023-12-28T09:13:44;97990.19;;;18.97
78369;BMP280;71113;43.092;-89.268;2023-12-28T09:16:12;97987.88;;;18.95
78369;BMP280;71113;43.092;-89.268;2023-12-28T09:18:38;97993.81;;;18.92
78369;BMP280;71113;43.092;-89.268;2023-12-28T09:21:05;97986.53;;;18.89
78369;BMP280;71113;43.092;-89.268;2023-12-28T09:23:32;97986.88;;;18.87
78369;BMP280;71113;43.092;-89.268;2023-12-28T09:26:02;97988.25;;;18.85
78369;BMP280;71113;43.092;-89.268;2023-12-28T09:28:32;97985.97;;;18.83
78369;BMP280;71113;43.092;-89.268;2023-12-28T09:30:59;97976.78;;;18.81
78369;BMP280;71113;43.092;-89.268;2023-12-28T09:33:25;97975.59;;;18.78
78369;BMP280;71113;43.092;-89.268;2023-12-28T09:35:51;97973.72;;;18.79
78369;BMP280;71113;43.092;-89.268;2023-12-28T09:38:19;97970.59;;;18.77
78369;BMP280;71113;43.092;-89.268;2023-12-28T09:40:45;97979.63;;;18.76
78369;BMP280;71113;43.092;-89.268;2023-12-28T09:43:24;97972.06;;;18.74
78369;BMP280;71113;43.092;-89.268;2023-12-28T09:45:51;97979.50;;;18.72
78369;BMP280;71113;43.092;-89.268;2023-12-28T09:48:19;97967.41;;;18.71
78369;BMP280;71113;43.092;-89.268;2023-12-28T09:50:49;97972.56;;;18.68
78369;BMP280;71113;43.092;-89.268;2023-12-28T09:53:16;97978.63;;;18.68
78369;BMP280;71113;43.092;-89.268;2023-12-28T09:55:42;97979.25;;;18.65
78369;BMP280;71113;43.092;-89.268;2023-12-28T09:58:10;97977.72;;;18.64
78369;BMP280;71113;43.092;-89.268;2023-12-28T10:00:37;97969.03;;;18.64
78369;BMP280;71113;43.092;-89.268;2023-12-28T10:03:04;97976.75;;;18.69
78369;BMP280;71113;43.092;-89.268;2023-12-28T10:05:29;97972.06;;;18.74
78369;BMP280;71113;43.092;-89.268;2023-12-28T10:07:56;97968.44;;;18.79
78369;BMP280;71113;43.092;-89.268;2023-12-28T10:10:22;97966.22;;;18.81
78369;BMP280;71113;43.092;-89.268;2023-12-28T10:12:48;97953.69;;;18.78
78369;BMP280;71113;43.092;-89.268;2023-12-28T10:15:15;97960.41;;;18.75
78369;BMP280;71113;43.092;-89.268;2023-12-28T10:17:40;97950.44;;;18.72
78369;BMP280;71113;43.092;-89.268;2023-12-28T10:20:07;97954.19;;;18.71
78369;BMP280;71113;43.092;-89.268;2023-12-28T10:22:36;97953.75;;;18.69
78369;BMP280;71113;43.092;-89.268;2023-12-28T10:25:03;97948.78;;;18.68
78369;BMP280;71113;43.092;-89.268;2023-12-28T10:27:29;97937.00;;;18.65
78369;BMP280;71113;43.092;-89.268;2023-12-28T10:29:56;97943.38;;;18.64
78369;BMP280;71113;43.092;-89.268;2023-12-28T10:32:22;97933.13;;;18.63
78369;BMP280;71113;43.092;-89.268;2023-12-28T10:34:52;97930.47;;;18.63
78369;BMP280;71113;43.092;-89.268;2023-12-28T10:37:21;97924.75;;;18.61
78369;BMP280;71113;43.092;-89.268;2023-12-28T10:40:12;97930.38;;;18.59
78369;BMP280;71113;43.092;-89.268;2023-12-28T10:45:16;97927.41;;;18.61
78369;BMP280;71113;43.092;-89.268;2023-12-28T10:48:11;97927.19;;;18.66
78369;BMP280;71113;43.092;-89.268;2023-12-28T10:50:50;97927.03;;;18.71
78369;BMP280;71113;43.092;-89.268;2023-12-28T10:53:30;97926.53;;;18.69
78369;BMP280;71113;43.092;-89.268;2023-12-28T10:56:10;97915.09;;;18.65
78369;BMP280;71113;43.092;-89.268;2023-12-28T10:58:44;97924.09;;;18.64
78369;BMP280;71113;43.092;-89.268;2023-12-28T11:01:17;97933.91;;;18.63
78369;BMP280;71113;43.092;-89.268;2023-12-28T11:03:54;97929.28;;;18.60
78369;BMP280;71113;43.092;-89.268;2023-12-28T11:06:25;97929.69;;;18.62
78369;BMP280;71113;43.092;-89.268;2023-12-28T11:08:52;97934.03;;;18.67
78369;BMP280;71113;43.092;-89.268;2023-12-28T11:11:21;97927.75;;;18.71
78369;BMP280;71113;43.092;-89.268;2023-12-28T11:13:48;97931.75;;;18.77
78369;BMP280;71113;43.092;-89.268;2023-12-28T11:16:16;97927.84;;;18.83
78369;BMP280;71113;43.092;-89.268;2023-12-28T11:18:43;97932.13;;;18.88
78369;BMP280;71113;43.092;-89.268;2023-12-28T11:21:09;97934.91;;;18.92
78369;BMP280;71113;43.092;-89.268;2023-12-28T11:23:35;97929.84;;;18.99
78369;BMP280;71113;43.092;-89.268;2023-12-28T11:26:01;97920.81;;;19.00
78369;BMP280;71113;43.092;-89.268;2023-12-28T11:28:27;97921.09;;;19.07
78369;BMP280;71113;43.092;-89.268;2023-12-28T11:30:53;97907.66;;;19.12
78369;BMP280;71113;43.092;-89.268;2023-12-28T11:33:19;97905.13;;;19.15
78369;BMP280;71113;43.092;-89.268;2023-12-28T11:35:47;97907.88;;;19.19
78369;BMP280;71113;43.092;-89.268;2023-12-28T11:38:15;97902.72;;;19.23
78369;BMP280;71113;43.092;-89.268;2023-12-28T11:40:42;97898.13;;;19.32
78369;BMP280;71113;43.092;-89.268;2023-12-28T11:43:20;97899.56;;;19.41
78369;BMP280;71113;43.092;-89.268;2023-12-28T11:45:51;97902.78;;;19.47
78369;BMP280;71113;43.092;-89.268;2023-12-28T11:48:24;97896.38;;;19.48
78369;BMP280;71113;43.092;-89.268;2023-12-28T11:50:54;97900.69;;;19.53
78369;BMP280;71113;43.092;-89.268;2023-12-28T11:53:20;97896.59;;;19.55
78369;BMP280;71113;43.092;-89.268;2023-12-28T11:55:46;97894.94;;;19.63
78369;BMP280;71113;43.092;-89.268;2023-12-28T11:58:12;97892.50;;;19.70
78369;BMP280;71113;43.092;-89.268;2023-12-28T12:00:40;97882.34;;;19.72
78369;BMP280;71113;43.092;-89.268;2023-12-28T12:03:06;97888.53;;;19.76
78369;BMP280;71113;43.092;-89.268;2023-12-28T12:05:35;97885.53;;;19.77
78369;BMP280;71113;43.092;-89.268;2023-12-28T12:08:01;97885.25;;;19.79
78369;BMP280;71113;43.092;-89.268;2023-12-28T12:10:27;97884.34;;;19.75
78369;BMP280;71113;43.092;-89.268;2023-12-28T12:12:53;97885.00;;;19.72
78369;BMP280;71113;43.092;-89.268;2023-12-28T12:15:19;97880.03;;;19.70
78369;BMP280;71113;43.092;-89.268;2023-12-28T12:17:45;97879.28;;;19.70
78369;BMP280;71113;43.092;-89.268;2023-12-28T12:20:11;97878.50;;;19.69
78369;BMP280;71113;43.092;-89.268;2023-12-28T12:22:37;97871.66;;;19.68
78369;BMP280;71113;43.092;-89.268;2023-12-28T12:25:03;97865.59;;;19.68
78369;BMP280;71113;43.092;-89.268;2023-12-28T12:27:31;97873.88;;;19.66
78369;BMP280;71113;43.092;-89.268;2023-12-28T12:29:57;97859.53;;;19.67
78369;BMP280;71113;43.092;-89.268;2023-12-28T12:32:23;97863.50;;;19.73
78369;BMP280;71113;43.092;-89.268;2023-12-28T12:34:50;97865.94;;;19.78
78369;BMP280;71113;43.092;-89.268;2023-12-28T12:37:17;97870.34;;;19.87
78369;BMP280;71113;43.092;-89.268;2023-12-28T12:39:43;97869.97;;;19.88
78369;BMP280;71113;43.092;-89.268;2023-12-28T12:42:15;97869.25;;;19.88
78369;BMP280;71113;43.092;-89.268;2023-12-28T12:44:42;97862.28;;;19.83
78369;BMP280;71113;43.092;-89.268;2023-12-28T12:47:08;97867.91;;;19.81
78369;BMP280;71113;43.092;-89.268;2023-12-28T12:49:34;97863.72;;;19.80
78369;BMP280;71113;43.092;-89.268;2023-12-28T12:52:00;97867.13;;;19.81
78369;BMP280;71113;43.092;-89.268;2023-12-28T12:54:26;97859.88;;;19.78
78369;BMP280;71113;43.092;-89.268;2023-12-28T12:56:54;97860.66;;;19.78
78369;BMP280;71113;43.092;-89.268;2023-12-28T12:59:20;97851.25;;;19.81
78369;BMP280;71113;43.092;-89.268;2023-12-28T13:01:47;97855.56;;;19.86
78369;BMP280;71113;43.092;-89.268;2023-12-28T13:04:18;97855.72;;;19.93
78369;BMP280;71113;43.092;-89.268;2023-12-28T13:06:43;97853.22;;;19.96
78369;BMP280;71113;43.092;-89.268;2023-12-28T13:09:09;97854.66;;;19.94
78369;BMP280;71113;43.092;-89.268;2023-12-28T13:11:37;97849.25;;;19.90
78369;BMP280;71113;43.092;-89.268;2023-12-28T13:14:03;97853.34;;;19.88
78369;BMP280;71113;43.092;-89.268;2023-12-28T13:16:50;97857.09;;;19.87
78369;BMP280;71113;43.092;-89.268;2023-12-28T13:19:20;97851.03;;;19.86
78369;BMP280;71113;43.092;-89.268;2023-12-28T13:21:46;97854.00;;;19.85
78369;BMP280;71113;43.092;-89.268;2023-12-28T13:24:12;97856.63;;;19.85
78369;BMP280;71113;43.092;-89.268;2023-12-28T13:26:38;97854.00;;;19.85
78369;BMP280;71113;43.092;-89.268;2023-12-28T13:29:03;97861.63;;;19.86
78369;BMP280;71113;43.092;-89.268;2023-12-28T13:31:29;97857.97;;;19.91
78369;BMP280;71113;43.092;-89.268;2023-12-28T13:33:55;97858.84;;;19.95
78369;BMP280;71113;43.092;-89.268;2023-12-28T13:36:21;97855.19;;;19.99
78369;BMP280;71113;43.092;-89.268;2023-12-28T13:38:47;97863.47;;;19.98
78369;BMP280;71113;43.092;-89.268;2023-12-28T13:41:13;97860.72;;;19.94
78369;BMP280;71113;43.092;-89.268;2023-12-28T13:43:39;97860.25;;;19.92
78369;BMP280;71113;43.092;-89.268;2023-12-28T13:46:05;97848.16;;;19.91
78369;BMP280;71113;43.092;-89.268;2023-12-28T13:48:31;97851.91;;;19.90